Time;durP1;ratioP1;P1;durP2;ratioP2;P2;SDS_P1;SDS_P2;PMS_P1;PMS_P2;Temp;Humidity;BMP_temperature;BMP_pressure;BME280_temperature;BME280_humidity;BME280_pressure;Samples;Min_cycle;Max_cycle;Signal;HPM_P1;HPM_P2
2022/09/25 00:00:46;;;;;;;4.90;3.70;;;;;;;12.67;70.49;92382.88;2071381;69;20171;-75
2022/09/25 00:03:14;;;;;;;4.68;3.60;;;;;;;12.69;69.89;92379.41;2071519;69;20144;-76
2022/09/25 00:05:42;;;;;;;6.65;4.10;;;;;;;12.66;69.44;92378.59;2071262;69;20306;-75
2022/09/25 00:08:09;;;;;;;5.93;3.97;;;;;;;12.69;68.26;92373.75;2067974;69;20580;-75
2022/09/25 00:10:40;;;;;;;6.18;4.28;;;;;;;12.37;72.13;92370.84;2071472;69;20228;-75
2022/09/25 00:13:06;;;;;;;5.40;4.22;;;;;;;12.15;74.27;92373.28;2071746;69;20140;-75
2022/09/25 00:15:32;;;;;;;7.45;4.75;;;;;;;12.39;71.85;92381.50;2071578;69;20321;-75
2022/09/25 00:17:58;;;;;;;7.10;4.88;;;;;;;12.49;71.00;92376.34;2068275;69;20527;-74
2022/09/25 00:20:27;;;;;;;11.68;5.93;;;;;;;12.54;70.70;92374.44;2071837;69;20144;-76
2022/09/25 00:22:53;;;;;;;9.13;4.60;;;;;;;12.54;69.78;92369.53;2071574;69;20206;-76
2022/09/25 00:25:19;;;;;;;7.13;4.78;;;;;;;12.53;71.06;92373.72;2071665;69;20179;-75
2022/09/25 00:27:47;;;;;;;7.05;4.13;;;;;;;12.51;70.79;92378.53;2071513;69;20235;-76
2022/09/25 00:30:13;;;;;;;5.18;3.90;;;;;;;12.51;70.56;92384.16;2068425;69;20164;-75
2022/09/25 00:32:40;;;;;;;6.75;3.97;;;;;;;12.55;68.40;92384.38;2071766;69;20243;-76
2022/09/25 00:35:06;;;;;;;7.38;4.55;;;;;;;12.16;73.98;92371.19;2071745;69;20131;-74
2022/09/25 00:37:35;;;;;;;7.25;4.80;;;;;;;12.26;73.40;92363.22;2071538;69;20164;-75
2022/09/25 00:40:03;;;;;;;8.00;4.28;;;;;;;12.21;72.37;92370.75;2071383;69;20298;-74
2022/09/25 00:42:29;;;;;;;7.63;4.55;;;;;;;12.37;71.61;92373.66;2068035;69;20619;-75
2022/09/25 00:45:04;;;;;;;7.50;4.75;;;;;;;12.34;72.08;92366.47;2071435;69;20167;-74
2022/09/25 00:47:38;;;;;;;8.77;4.93;;;;;;;12.37;71.38;92370.09;2071291;69;20163;-74
2022/09/25 00:50:16;;;;;;;7.97;5.30;;;;;;;12.36;71.64;92366.53;2071494;69;20136;-74
2022/09/25 00:52:42;;;;;;;8.00;4.47;;;;;;;12.44;70.43;92369.03;2071373;69;20556;-75
2022/09/25 00:55:08;;;;;;;7.60;4.57;;;;;;;12.46;69.71;92374.78;2071221;69;20186;-75
2022/09/25 00:57:37;;;;;;;8.60;4.93;;;;;;;12.43;70.83;92368.31;2071373;69;20245;-75
2022/09/25 01:00:08;;;;;;;9.23;4.80;;;;;;;12.31;71.13;92370.53;2071314;69;20148;-74
2022/09/25 01:02:41;;;;;;;7.75;4.80;;;;;;;12.41;70.15;92362.56;2071333;69;20145;-75
2022/09/25 01:05:16;;;;;;;10.10;4.82;;;;;;;12.45;69.96;92367.66;2071422;69;20152;-74
2022/09/25 01:07:45;;;;;;;8.95;5.43;;;;;;;12.43;69.86;92365.50;2071321;69;20231;-76
2022/09/25 01:10:12;;;;;;;8.02;4.45;;;;;;;12.44;69.14;92358.47;2071067;69;20151;-74
2022/09/25 01:12:44;;;;;;;5.75;4.35;;;;;;;12.46;69.48;92352.19;2071380;69;20227;-76
2022/09/25 01:15:13;;;;;;;7.85;4.93;;;;;;;12.48;69.34;92351.56;2071117;69;20664;-76
2022/09/25 01:18:13;;;;;;;6.97;4.50;;;;;;;12.47;69.68;92359.31;2071278;69;20228;-77
2022/09/25 01:21:04;;;;;;;5.65;4.40;;;;;;;12.48;69.47;92357.22;2068075;69;20136;-75
2022/09/25 01:23:47;;;;;;;5.60;4.18;;;;;;;12.44;69.73;92355.66;2067893;69;20244;-74
2022/09/25 01:26:39;;;;;;;5.20;4.20;;;;;;;12.45;70.48;92351.47;2067623;69;20639;-74
2022/09/25 01:29:17;;;;;;;5.68;3.95;;;;;;;12.39;71.59;92348.34;2067815;69;20145;-75
2022/09/25 01:32:05;;;;;;;4.72;3.70;;;;;;;12.48;69.00;92352.28;2067784;69;20226;-74
2022/09/25 01:34:44;;;;;;;4.72;3.33;;;;;;;12.43;70.93;92342.91;2067760;69;20147;-76
2022/09/25 01:37:51;;;;;;;7.90;3.50;;;;;;;12.43;70.98;92348.53;2064592;69;20141;-75
2022/09/25 01:40:32;;;;;;;4.32;3.47;;;;;;;12.40;69.40;92340.59;2067653;69;20163;-74
2022/09/25 01:43:35;;;;;;;7.13;3.65;;;;;;;12.27;70.63;92347.03;2067347;69;20584;-74
2022/09/25 01:46:06;;;;;;;;;;;;;;;12.28;70.98;92345.66;2065230;69;20180;-76
2022/09/25 01:48:33;;;;;;;6.43;3.80;;;;;;;12.35;70.24;92353.06;2067628;69;20068;-74
2022/09/25 01:51:07;;;;;;;6.07;3.95;;;;;;;12.32;70.00;92345.84;2070461;69;20257;-76
2022/09/25 01:53:42;;;;;;;6.13;3.78;;;;;;;12.37;69.83;92351.09;2067738;69;20568;-75
2022/09/25 01:56:18;;;;;;;6.63;3.80;;;;;;;12.30;71.11;92354.97;2070969;69;20592;-75
2022/09/25 01:58:54;;;;;;;6.43;3.92;;;;;;;12.28;71.20;92351.31;2071151;69;20144;-76
2022/09/25 02:01:29;;;;;;;7.47;3.97;;;;;;;12.32;70.29;92348.69;2067677;69;20120;-75
2022/09/25 02:04:04;;;;;;;4.50;3.60;;;;;;;12.30;71.68;92343.66;2071109;69;20235;-75
2022/09/25 02:06:32;;;;;;;6.63;3.65;;;;;;;12.34;68.99;92343.16;2071129;69;20548;-74
2022/09/25 02:09:10;;;;;;;5.15;3.13;;;;;;;12.37;70.84;92333.41;2071027;69;20159;-75
2022/09/25 02:11:41;;;;;;;5.38;3.33;;;;;;;12.39;67.67;92331.41;2071021;69;20220;-74
2022/09/25 02:14:19;;;;;;;4.68;3.28;;;;;;;12.35;69.95;92322.75;2070937;69;20209;-74
2022/09/25 02:16:50;;;;;;;5.55;3.35;;;;;;;12.21;70.63;92331.25;2070993;69;20171;-75
2022/09/25 02:22:10;;;;;;;4.72;3.47;;;;;;;12.25;70.47;92325.09;2070901;69;20140;-75
2022/09/25 02:24:46;;;;;;;4.95;3.50;;;;;;;12.28;69.94;92326.66;2067737;69;20151;-76
2022/09/25 02:27:13;;;;;;;6.07;3.72;;;;;;;12.29;70.36;92333.75;2070998;69;20121;-75
2022/09/25 02:29:39;;;;;;;6.53;3.55;;;;;;;12.34;69.62;92314.91;2071303;69;20264;-76
2022/09/25 02:32:09;;;;;;;4.20;3.35;;;;;;;12.30;70.12;92303.44;2065175;69;20168;-75
2022/09/25 02:34:35;;;;;;;3.67;3.22;;;;;;;12.38;67.50;92313.03;2071406;69;20163;-75
2022/09/25 02:37:01;;;;;;;5.53;3.55;;;;;;;12.40;68.74;92303.91;2070908;69;20144;-74
2022/09/25 02:39:29;;;;;;;5.07;3.47;;;;;;;12.34;69.24;92310.00;2071222;69;20144;-75
2022/09/25 02:41:55;;;;;;;4.97;3.53;;;;;;;12.27;70.49;92305.41;2071185;69;20144;-75
2022/09/25 02:44:27;;;;;;;4.30;3.53;;;;;;;12.29;69.66;92290.69;2071361;69;20518;-75
2022/09/25 02:47:21;;;;;;;4.32;3.70;;;;;;;12.28;69.43;92306.16;2071217;69;20201;-75
2022/09/25 02:50:15;;;;;;;4.28;3.15;;;;;;;12.30;67.64;92301.34;2071456;69;20143;-75
2022/09/25 02:52:46;;;;;;;5.95;3.30;;;;;;;12.21;71.19;92313.59;2071093;69;20255;-75
2022/09/25 02:55:20;;;;;;;5.50;3.30;;;;;;;12.11;72.39;92315.94;2071330;69;20224;-75
2022/09/25 02:58:02;;;;;;;4.35;3.42;;;;;;;12.17;72.50;92311.31;2071280;69;20149;-75
2022/09/25 03:00:29;;;;;;;4.22;3.28;;;;;;;12.24;70.15;92315.16;2071189;69;20245;-75
2022/09/25 03:02:58;;;;;;;6.07;3.10;;;;;;;12.28;69.31;92306.91;2071442;69;20141;-75
2022/09/25 03:05:25;;;;;;;5.10;3.70;;;;;;;11.97;73.32;92301.84;2071187;69;20163;-75
2022/09/25 03:10:36;;;;;;;5.15;3.58;;;;;;;12.05;72.56;92293.03;2071162;69;20168;-75
2022/09/25 03:13:16;;;;;;;3.50;3.10;;;;;;;12.22;69.66;92289.66;2071152;69;20592;-75
2022/09/25 03:15:45;;;;;;;5.35;3.10;;;;;;;12.21;70.06;92297.38;2071308;69;20152;-76
2022/09/25 03:18:13;;;;;;;7.43;3.33;;;;;;;12.11;71.36;92291.25;2071110;69;20152;-75
2022/09/25 03:20:39;;;;;;;4.35;3.20;;;;;;;12.14;71.06;92292.06;2071289;69;20251;-76
2022/09/25 03:23:05;;;;;;;4.95;3.50;;;;;;;12.19;70.31;92285.28;2071075;69;20233;-76
2022/09/25 03:25:30;;;;;;;4.35;3.10;;;;;;;12.16;70.51;92284.44;2070948;69;20239;-76
2022/09/25 03:27:56;;;;;;;4.25;3.30;;;;;;;12.17;69.96;92285.19;2067697;69;20139;-75
2022/09/25 03:30:23;;;;;;;5.07;3.38;;;;;;;12.14;69.87;92284.38;2071093;69;20124;-75
2022/09/25 03:32:48;;;;;;;5.85;3.53;;;;;;;12.17;69.45;92288.00;2071168;69;20199;-75
2022/09/25 03:35:14;;;;;;;7.32;5.30;;;;;;;12.17;70.89;92288.72;2071181;69;20124;-76
2022/09/25 03:37:40;;;;;;;13.05;9.52;;;;;;;12.16;70.38;92283.72;2071203;69;20137;-75
2022/09/25 03:40:06;;;;;;;9.23;8.00;;;;;;;12.16;70.81;92292.19;2071115;69;20183;-76
2022/09/25 03:42:32;;;;;;;7.03;4.88;;;;;;;12.00;73.21;92285.75;2070892;69;20175;-75
2022/09/25 03:44:57;;;;;;;5.35;4.38;;;;;;;11.95;72.69;92284.81;2071045;69;20159;-76
2022/09/25 03:47:23;;;;;;;5.70;4.68;;;;;;;12.07;71.37;92279.06;2071109;69;20156;-76
2022/09/25 03:49:48;;;;;;;7.90;4.78;;;;;;;12.00;71.30;92277.28;2071103;69;20168;-75
2022/09/25 03:52:14;;;;;;;6.45;4.10;;;;;;;12.05;70.75;92276.88;2071119;69;20144;-76
2022/09/25 03:54:40;;;;;;;6.30;4.18;;;;;;;12.09;70.72;92279.13;2071179;69;20236;-76
2022/09/25 03:57:06;;;;;;;7.18;4.20;;;;;;;12.06;70.29;92274.78;2070880;69;20144;-76
2022/09/25 03:59:31;;;;;;;5.88;4.20;;;;;;;12.14;70.10;92280.78;2071001;69;20247;-76
2022/09/25 04:01:57;;;;;;;6.00;4.00;;;;;;;12.07;72.09;92276.22;2071048;69;20150;-75
2022/09/25 04:04:23;;;;;;;5.57;4.22;;;;;;;12.04;71.01;92277.50;2071381;69;20160;-75
2022/09/25 04:06:48;;;;;;;6.65;3.78;;;;;;;11.74;71.87;92277.44;2071682;69;20172;-75
2022/09/25 04:09:14;;;;;;;6.22;5.03;;;;;;;11.88;71.28;92277.44;2071643;69;20152;-75
2022/09/25 04:11:39;;;;;;;6.95;4.05;;;;;;;12.00;69.89;92280.09;2071768;69;20560;-76
2022/09/25 04:14:05;;;;;;;4.28;3.75;;;;;;;12.04;69.39;92271.84;2071604;69;20149;-76
2022/09/25 04:16:31;;;;;;;6.43;3.80;;;;;;;12.03;70.67;92271.13;2071528;69;20125;-76
2022/09/25 04:18:57;;;;;;;4.10;3.70;;;;;;;11.99;71.55;92278.66;2071583;69;20187;-76
2022/09/25 04:21:23;;;;;;;4.32;3.60;;;;;;;11.99;70.77;92278.66;2071526;69;20144;-76
2022/09/25 04:26:33;;;;;;;5.28;4.38;;;;;;;11.93;71.95;92273.44;2068604;69;20176;-76
2022/09/25 04:29:00;;;;;;;6.38;4.70;;;;;;;11.88;71.44;92278.16;2071554;69;20179;-76
2022/09/25 04:31:27;;;;;;;6.45;4.40;;;;;;;11.89;70.82;92281.72;2068264;69;20144;-76
2022/09/25 04:33:53;;;;;;;7.07;4.30;;;;;;;11.68;72.63;92294.78;2071695;69;20590;-76
2022/09/25 04:36:19;;;;;;;7.15;4.13;;;;;;;11.85;72.65;92298.44;2071713;69;20164;-76
2022/09/25 04:38:45;;;;;;;4.80;3.63;;;;;;;11.87;72.08;92298.53;2071645;69;20148;-76
2022/09/25 04:41:11;;;;;;;5.18;3.72;;;;;;;11.94;70.29;92301.03;2071476;69;20159;-75
2022/09/25 04:43:37;;;;;;;5.70;4.10;;;;;;;11.98;70.13;92299.75;2071475;69;20137;-76
2022/09/25 04:46:05;;;;;;;7.57;4.30;;;;;;;11.93;71.59;92301.66;2071475;69;20148;-75
2022/09/25 04:48:31;;;;;;;5.55;4.30;;;;;;;11.89;71.65;92290.91;2071501;69;20218;-75
2022/09/25 04:50:57;;;;;;;6.00;4.03;;;;;;;11.90;71.80;92292.34;2071510;69;20258;-75
2022/09/25 04:53:28;;;;;;;6.72;4.60;;;;;;;11.90;70.86;92292.34;2071580;69;20148;-75
2022/09/25 04:56:00;;;;;;;5.30;4.32;;;;;;;11.93;71.09;92282.63;2071407;69;20176;-76
2022/09/25 04:58:25;;;;;;;6.90;4.20;;;;;;;11.88;70.27;92283.81;2071520;69;20151;-76
2022/09/25 05:00:51;;;;;;;7.05;4.88;;;;;;;11.81;72.98;92282.00;2071558;69;20586;-76
2022/09/25 05:03:17;;;;;;;5.53;4.50;;;;;;;11.87;70.70;92290.81;2071436;69;20163;-75
2022/09/25 05:05:43;;;;;;;5.05;4.15;;;;;;;11.84;72.70;92286.41;2071446;69;20140;-76
2022/09/25 05:08:10;;;;;;;5.82;3.83;;;;;;;11.86;71.54;92288.59;2065290;69;20206;-76
2022/09/25 05:10:38;;;;;;;4.18;3.63;;;;;;;11.84;72.26;92288.50;2071412;69;20152;-76
2022/09/25 05:13:04;;;;;;;4.07;3.65;;;;;;;11.86;72.30;92280.88;2071416;69;20156;-76
2022/09/25 05:15:32;;;;;;;6.57;3.42;;;;;;;11.84;71.64;92274.41;2071225;69;20232;-76
2022/09/25 05:18:00;;;;;;;6.30;3.35;;;;;;;11.83;71.19;92270.88;2071450;69;20156;-76
2022/09/25 05:20:26;;;;;;;10.02;5.47;;;;;;;11.26;76.06;92279.25;2071490;69;20187;-76
2022/09/25 05:22:56;;;;;;;32.30;20.08;;;;;;;11.20;77.39;92271.22;2068068;69;20563;-75
2022/09/25 05:25:24;;;;;;;22.73;14.38;;;;;;;11.57;73.91;92273.06;2071349;69;20232;-75
2022/09/25 05:27:54;;;;;;;19.55;5.47;;;;;;;11.71;71.22;92278.69;2071376;69;20168;-75
2022/09/25 05:30:21;;;;;;;11.18;5.60;;;;;;;11.75;71.39;92272.53;2068043;69;20213;-75
2022/09/25 05:32:48;;;;;;;8.48;6.05;;;;;;;11.73;71.79;92275.22;2068095;69;20272;-75
2022/09/25 05:35:16;;;;;;;8.93;5.35;;;;;;;11.76;71.03;92277.53;2071345;69;20146;-75
2022/09/25 05:37:42;;;;;;;6.45;5.13;;;;;;;11.77;71.24;92286.72;2065233;69;20214;-75
2022/09/25 05:40:08;;;;;;;8.00;6.20;;;;;;;11.16;76.49;92293.53;2071603;69;20148;-75
2022/09/25 05:42:34;;;;;;;8.80;6.38;;;;;;;11.36;74.76;92287.47;2071290;69;20237;-75
2022/09/25 05:44:59;;;;;;;8.32;6.22;;;;;;;11.64;72.74;92286.13;2071385;69;20580;-75
2022/09/25 05:47:25;;;;;;;9.52;6.18;;;;;;;11.66;72.36;92274.22;2071443;69;20144;-76
2022/09/25 05:49:50;;;;;;;7.80;5.25;;;;;;;11.77;71.00;92278.25;2071409;69;20160;-75
2022/09/25 05:52:16;;;;;;;8.48;4.95;;;;;;;11.87;70.32;92287.25;2071426;69;20596;-76
2022/09/25 05:54:41;;;;;;;7.40;5.15;;;;;;;11.85;71.98;92289.97;2071407;69;20144;-76
2022/09/25 05:57:07;;;;;;;6.15;4.95;;;;;;;11.87;71.62;92290.09;2071201;69;20599;-75
2022/09/25 05:59:33;;;;;;;5.65;4.18;;;;;;;12.03;68.82;92290.88;2071418;69;20144;-74
2022/09/25 06:01:59;;;;;;;8.68;5.20;;;;;;;12.11;69.20;92296.91;2071411;69;20528;-75
2022/09/25 06:04:25;;;;;;;9.48;6.13;;;;;;;12.02;69.18;92305.63;2067932;69;20147;-75
2022/09/25 06:06:53;;;;;;;11.00;6.50;;;;;;;12.02;70.82;92309.16;2071338;69;20156;-75
2022/09/25 06:09:18;;;;;;;9.48;6.80;;;;;;;11.81;73.96;92309.47;2071255;69;20260;-75
2022/09/25 06:11:47;;;;;;;7.07;6.03;;;;;;;12.03;72.58;92307.06;2071223;69;20176;-75
2022/09/25 06:14:13;;;;;;;8.40;6.15;;;;;;;12.15;70.76;92304.84;2071329;69;20156;-75
2022/09/25 06:16:39;;;;;;;12.55;10.75;;;;;;;12.07;72.71;92299.53;2071274;69;20583;-75
2022/09/25 06:19:05;;;;;;;13.13;10.07;;;;;;;12.10;69.79;92300.38;2071226;69;20163;-75
2022/09/25 06:21:31;;;;;;;13.75;10.43;;;;;;;12.17;69.62;92302.09;2071385;69;20144;-76
2022/09/25 06:23:56;;;;;;;13.07;9.45;;;;;;;12.24;70.68;92303.88;2071254;69;20148;-76
2022/09/25 06:26:24;;;;;;;11.95;8.75;;;;;;;12.31;71.37;92302.78;2071114;69;20143;-76
2022/09/25 06:28:49;;;;;;;12.05;8.20;;;;;;;12.37;71.72;92308.00;2071389;69;20208;-76
2022/09/25 06:31:15;;;;;;;11.00;7.93;;;;;;;12.38;72.41;92312.28;2071352;69;20205;-75
2022/09/25 06:33:42;;;;;;;10.20;7.40;;;;;;;12.52;67.86;92301.69;2071082;69;20147;-75
2022/09/25 06:36:08;;;;;;;9.18;7.25;;;;;;;12.61;67.72;92305.63;2071328;69;20654;-75
2022/09/25 06:38:33;;;;;;;9.27;7.15;;;;;;;12.56;70.47;92301.88;2071165;69;20156;-75
2022/09/25 06:40:59;;;;;;;8.85;6.80;;;;;;;12.60;69.87;92292.84;2071154;69;20339;-75
2022/09/25 06:43:25;;;;;;;9.20;7.10;;;;;;;12.76;67.89;92292.88;2067807;69;20152;-75
2022/09/25 06:45:51;;;;;;;7.32;6.50;;;;;;;12.87;67.84;92295.50;2071186;69;20151;-75
2022/09/25 06:48:17;;;;;;;9.10;6.95;;;;;;;12.92;68.03;92282.31;2071196;69;20132;-76
2022/09/25 06:50:49;;;;;;;8.40;6.40;;;;;;;12.90;70.19;92279.41;2071172;69;20331;-76
2022/09/25 06:53:16;;;;;;;10.52;7.57;;;;;;;13.03;68.14;92286.34;2071252;69;20556;-76
2022/09/25 06:55:44;;;;;;;11.35;7.60;;;;;;;13.10;65.33;92279.56;2067716;69;20143;-76
2022/09/25 06:58:12;;;;;;;10.75;7.65;;;;;;;13.05;71.39;92281.50;2067949;69;20611;-75
2022/09/25 07:00:37;;;;;;;9.18;6.75;;;;;;;12.98;68.17;92277.66;2071276;69;20178;-75
2022/09/25 07:05:47;;;;;;;9.30;6.65;;;;;;;12.92;71.14;92283.06;2071218;69;20144;-76
2022/09/25 07:08:16;;;;;;;11.27;7.57;;;;;;;13.28;70.24;92286.06;2071113;69;20213;-76
2022/09/25 07:10:52;;;;;;;8.75;6.13;;;;;;;13.31;69.87;92284.06;2071022;69;20235;-77
2022/09/25 07:13:23;;;;;;;11.60;5.72;;;;;;;13.54;67.42;92278.00;2071197;69;20329;-77
2022/09/25 07:15:57;;;;;;;6.57;5.00;;;;;;;13.65;67.07;92290.47;2071153;69;20207;-77
2022/09/25 07:18:24;;;;;;;5.28;4.78;;;;;;;13.61;69.34;92279.75;2071068;69;20151;-75
2022/09/25 07:20:51;;;;;;;6.18;5.18;;;;;;;13.84;64.63;92284.25;2071174;69;20282;-75
2022/09/25 07:23:18;;;;;;;8.98;6.78;;;;;;;13.91;68.15;92279.56;2071073;69;20527;-75
2022/09/25 07:25:45;;;;;;;9.70;7.25;;;;;;;13.79;68.12;92279.03;2071049;69;20163;-76
2022/09/25 07:28:13;;;;;;;8.57;6.72;;;;;;;13.72;68.74;92275.25;2071088;69;20198;-75
2022/09/25 07:30:42;;;;;;;6.88;5.78;;;;;;;13.96;64.71;92272.69;2071109;69;20149;-77
2022/09/25 07:33:08;;;;;;;6.82;5.65;;;;;;;14.13;64.85;92269.16;2071018;69;20141;-76
2022/09/25 07:35:35;;;;;;;7.32;5.38;;;;;;;14.20;64.70;92273.72;2071074;69;20152;-76
2022/09/25 07:38:02;;;;;;;8.05;6.75;;;;;;;14.16;66.75;92269.97;2071071;69;20189;-76
2022/09/25 07:40:30;;;;;;;8.35;7.00;;;;;;;13.80;69.57;92274.84;2071519;69;20146;-76
2022/09/25 07:43:00;;;;;;;8.27;6.65;;;;;;;13.94;67.98;92267.69;2071574;69;20156;-75
2022/09/25 07:45:26;;;;;;;8.32;6.78;;;;;;;14.27;66.22;92274.66;2068122;69;20191;-77
2022/09/25 07:48:02;;;;;;;7.57;6.22;;;;;;;13.78;69.92;92269.09;2071518;69;20150;-77
2022/09/25 07:50:31;;;;;;;9.25;6.38;;;;;;;13.95;68.25;92274.78;2071551;69;20152;-76
2022/09/25 07:52:57;;;;;;;9.35;7.32;;;;;;;13.81;70.19;92274.22;2071479;69;20167;-77
2022/09/25 07:55:23;;;;;;;7.72;6.38;;;;;;;14.06;68.18;92278.03;2071400;69;20140;-76
2022/09/25 07:57:50;;;;;;;7.75;6.55;;;;;;;14.27;65.56;92277.50;2071436;69;20507;-75
2022/09/25 08:00:17;;;;;;;7.85;6.30;;;;;;;14.33;65.01;92274.91;2071620;69;20572;-75
2022/09/25 08:02:43;;;;;;;8.65;6.10;;;;;;;14.58;64.56;92275.91;2068115;69;20155;-76
2022/09/25 08:05:10;;;;;;;8.30;6.63;;;;;;;14.40;66.00;92270.22;2071580;69;20577;-76
2022/09/25 08:07:36;;;;;;;7.45;5.70;;;;;;;14.42;65.53;92273.84;2068188;69;20168;-77
2022/09/25 08:10:01;;;;;;;7.28;6.20;;;;;;;14.55;65.78;92268.72;2071553;69;20148;-77
2022/09/25 08:12:27;;;;;;;7.07;6.10;;;;;;;14.80;64.76;92265.44;2071513;69;20148;-77
2022/09/25 08:14:53;;;;;;;7.50;5.50;;;;;;;14.93;64.87;92263.78;2071645;69;20144;-77
2022/09/25 08:17:21;;;;;;;6.75;5.50;;;;;;;15.04;61.93;92262.81;2071437;69;20615;-77
2022/09/25 08:19:46;;;;;;;5.25;4.75;;;;;;;15.13;62.05;92256.06;2068062;69;20231;-77
2022/09/25 08:22:12;;;;;;;7.13;5.50;;;;;;;15.11;63.06;92255.97;2071354;69;20132;-77
2022/09/25 08:24:38;;;;;;;7.25;5.85;;;;;;;14.98;63.37;92254.81;2071414;69;20171;-77
2022/09/25 08:27:04;;;;;;;6.78;5.43;;;;;;;14.70;63.64;92256.53;2071341;69;20171;-77
2022/09/25 08:29:30;;;;;;;7.80;5.55;;;;;;;14.86;63.61;92256.44;2071371;69;20180;-77
2022/09/25 08:31:56;;;;;;;6.72;5.40;;;;;;;15.19;62.83;92255.53;2071457;69;20149;-77
2022/09/25 08:34:22;;;;;;;8.90;5.43;;;;;;;15.31;62.54;92258.84;2068158;69;20511;-77
2022/09/25 08:36:49;;;;;;;8.25;5.93;;;;;;;15.51;60.52;92253.88;2071438;69;20159;-76
2022/09/25 08:39:15;;;;;;;6.38;5.18;;;;;;;15.63;60.63;92259.25;2068189;69;20214;-76
2022/09/25 08:41:49;;;;;;;6.60;4.90;;;;;;;15.74;61.16;92251.84;2071370;69;20231;-77
2022/09/25 08:44:38;;;;;;;7.03;5.82;;;;;;;15.52;61.77;92258.16;2071406;69;20152;-74
2022/09/25 08:50:15;;;;;;;5.82;4.85;;;;;;;15.46;62.04;92257.94;2071688;69;20294;-75
2022/09/25 08:52:45;;;;;;;5.20;3.97;;;;;;;15.84;61.20;92248.63;2071554;69;20645;-76
2022/09/25 08:56:13;;;;;;;5.63;4.63;;;;;;;15.84;61.78;92242.94;2071360;69;20145;-75
2022/09/25 08:58:20;;;;;;;4.45;4.03;;;;;;;15.67;61.99;92242.41;2071508;69;20544;-75
2022/09/25 09:00:46;;;;;;;11.85;4.63;;;;;;;15.74;62.15;92234.81;2071375;69;20644;-75
2022/09/25 09:03:14;;;;;;;8.73;4.80;;;;;;;15.62;62.30;92235.09;2071529;69;20223;-75
2022/09/25 09:05:45;;;;;;;6.18;4.75;;;;;;;15.96;62.50;92243.38;2071445;69;20175;-76
2022/09/25 09:08:16;;;;;;;7.85;5.07;;;;;;;16.17;61.06;92233.41;2068183;69;20136;-75
2022/09/25 09:10:49;;;;;;;5.47;4.78;;;;;;;16.27;60.86;92237.31;2071419;69;20159;-75
2022/09/25 09:13:38;;;;;;;5.57;4.97;;;;;;;16.46;61.34;92235.06;2068124;69;20243;-75
2022/09/25 09:16:26;;;;;;;7.63;5.82;;;;;;;16.76;60.51;92229.59;2071169;69;20191;-76
2022/09/25 09:18:53;;;;;;;7.10;5.65;;;;;;;17.17;59.69;92231.53;2071673;69;20235;-75
2022/09/25 09:21:46;;;;;;;11.77;7.97;;;;;;;17.58;59.00;92229.09;2071652;69;20148;-75
2022/09/25 09:24:17;;;;;;;6.18;5.43;;;;;;;16.44;60.35;92232.84;2068246;69;20221;-75
2022/09/25 09:27:10;;;;;;;6.15;5.07;;;;;;;17.00;59.18;92226.78;2071496;69;20243;-75
2022/09/25 09:29:51;;;;;;;;;;;;;;;16.55;59.59;92236.03;2072490;69;20171;-75
2022/09/25 09:32:35;;;;;;;7.95;5.47;;;;;;;16.68;59.63;92226.50;2071709;69;20059;-75
2022/09/25 09:35:36;;;;;;;6.05;5.10;;;;;;;16.98;58.74;92227.44;2071477;69;20160;-75
2022/09/25 09:38:25;;;;;;;5.47;4.97;;;;;;;17.00;58.79;92227.50;2071403;69;20145;-75
2022/09/25 09:41:12;;;;;;;7.25;5.55;;;;;;;16.86;59.62;92226.34;2071353;69;20270;-75
2022/09/25 09:43:43;;;;;;;11.10;6.32;;;;;;;16.75;59.56;92233.84;2067984;69;20525;-75
2022/09/25 09:46:43;;;;;;;7.00;5.63;;;;;;;17.58;59.44;92234.81;2071324;69;20147;-76
2022/09/25 09:49:12;;;;;;;7.63;5.85;;;;;;;18.26;57.02;92226.66;2071498;69;20156;-74
2022/09/25 09:51:42;;;;;;;7.53;5.93;;;;;;;17.53;58.85;92220.47;2071375;69;20701;-74
2022/09/25 09:54:14;;;;;;;6.75;5.30;;;;;;;17.52;57.61;92223.97;2071463;69;20260;-75
2022/09/25 09:56:43;;;;;;;9.90;5.60;;;;;;;17.39;57.67;92216.50;2067958;69;20170;-74
2022/09/25 09:59:18;;;;;;;8.20;7.05;;;;;;;17.58;58.57;92214.88;2071364;69;20567;-75
2022/09/25 10:01:58;;;;;;;8.13;6.18;;;;;;;17.26;58.64;92223.97;2071306;69;20210;-75
2022/09/25 10:04:29;;;;;;;8.65;6.13;;;;;;;17.43;57.99;92220.19;2071414;69;20168;-75
2022/09/25 10:07:00;;;;;;;7.03;6.28;;;;;;;17.68;57.68;92215.88;2071414;69;20172;-74
2022/09/25 10:09:26;;;;;;;7.53;6.05;;;;;;;17.73;58.08;92208.94;2071302;69;20129;-75
2022/09/25 10:12:17;;;;;;;7.60;6.18;;;;;;;17.36;58.29;92207.16;2071258;69;20617;-75
2022/09/25 10:14:46;;;;;;;10.15;5.20;;;;;;;17.67;57.67;92199.47;2068052;69;20143;-75
2022/09/25 10:17:11;;;;;;;9.05;5.45;;;;;;;17.49;58.46;92214.66;2071287;69;20144;-75
2022/09/25 10:19:43;;;;;;;6.72;5.47;;;;;;;17.26;58.31;92204.78;2071337;69;20167;-75
2022/09/25 10:22:16;;;;;;;6.95;5.45;;;;;;;17.42;58.88;92204.50;2071258;69;20143;-75
2022/09/25 10:24:50;;;;;;;5.57;4.80;;;;;;;17.44;58.79;92204.56;2071357;69;20149;-75
2022/09/25 10:27:27;;;;;;;7.18;5.57;;;;;;;17.98;57.64;92198.91;2071225;69;20220;-75
2022/09/25 10:30:08;;;;;;;6.13;4.93;;;;;;;18.26;57.73;92193.19;2071309;69;20469;-74
2022/09/25 10:32:41;;;;;;;7.80;6.18;;;;;;;18.02;58.21;92195.44;2071265;69;20148;-75
2022/09/25 10:35:20;;;;;;;6.20;5.60;;;;;;;17.38;57.32;92190.16;2071300;69;20231;-75
2022/09/25 10:37:59;;;;;;;7.15;5.90;;;;;;;17.72;57.80;92181.09;2071369;69;20150;-75
2022/09/25 10:40:27;;;;;;;6.63;5.40;;;;;;;17.39;59.04;92183.09;2067822;69;20159;-76
2022/09/25 10:43:22;;;;;;;7.80;5.60;;;;;;;17.71;58.18;92176.81;2067848;69;20172;-76
2022/09/25 10:45:48;;;;;;;6.55;5.40;;;;;;;16.97;61.23;92177.66;2071192;69;20338;-75
2022/09/25 10:51:16;;;;;;;5.88;4.28;;;;;;;17.05;57.57;92167.91;2068290;69;20248;-76
2022/09/25 10:53:42;;;;;;;6.00;4.80;;;;;;;16.81;57.93;92165.78;2071240;69;20148;-75
2022/09/25 10:56:12;;;;;;;6.40;4.82;;;;;;;17.01;58.71;92166.41;2070898;69;20151;-75
2022/09/25 10:59:01;;;;;;;5.50;4.95;;;;;;;17.79;56.80;92165.66;2071064;69;20160;-76
2022/09/25 11:01:46;;;;;;;6.05;4.90;;;;;;;17.85;55.84;92165.09;2070953;69;20164;-75
2022/09/25 11:04:17;;;;;;;5.90;5.07;;;;;;;18.00;56.19;92161.91;2071282;69;20274;-76
2022/09/25 11:06:48;;;;;;;6.68;5.15;;;;;;;17.99;56.23;92159.75;2067861;69;20211;-76
2022/09/25 11:09:25;;;;;;;5.43;4.80;;;;;;;18.13;56.30;92162.22;2071182;69;20515;-76
2022/09/25 11:12:02;;;;;;;5.25;4.55;;;;;;;18.26;55.80;92161.13;2071039;69;20148;-76
2022/09/25 11:14:34;;;;;;;7.10;4.65;;;;;;;18.32;55.17;92164.09;2071548;69;20164;-76
2022/09/25 11:17:04;;;;;;;5.22;4.72;;;;;;;18.23;55.67;92160.34;2071646;69;20202;-76
2022/09/25 11:19:34;;;;;;;6.80;4.90;;;;;;;17.84;56.21;92163.66;2071595;69;20168;-76
2022/09/25 11:22:27;;;;;;;5.53;4.70;;;;;;;18.51;54.89;92156.72;2071609;69;20251;-76
2022/09/25 11:24:52;;;;;;;5.75;4.28;;;;;;;18.76;53.76;92153.03;2071616;69;20276;-76
2022/09/25 11:27:43;;;;;;;3.78;3.30;;;;;;;18.45;52.86;92159.41;2071505;69;20607;-76
2022/09/25 11:30:12;;;;;;;4.10;3.70;;;;;;;18.44;53.21;92160.81;2071586;69;20457;-76
2022/09/25 11:33:03;;;;;;;4.95;4.45;;;;;;;18.28;54.40;92149.78;2071632;69;20566;-76
2022/09/25 11:36:04;;;;;;;19.27;11.57;;;;;;;17.93;55.37;92143.25;2071471;69;20596;-75
2022/09/25 11:41:39;;;;;;;7.57;5.78;;;;;;;18.10;54.66;92143.63;2071523;69;20147;-76
2022/09/25 11:44:26;;;;;;;5.00;4.50;;;;;;;18.17;54.89;92143.09;2071590;69;20153;-76
2022/09/25 11:47:23;;;;;;;4.57;4.13;;;;;;;18.19;54.59;92137.47;2071510;69;20531;-75
2022/09/25 11:49:52;;;;;;;5.88;4.30;;;;;;;17.64;54.45;92136.09;2072579;69;20464;-75
2022/09/25 11:52:38;;;;;;;4.53;4.10;;;;;;;17.56;55.67;92138.00;2071902;69;20266;-76
2022/09/25 11:55:33;;;;;;;4.43;3.90;;;;;;;17.81;54.28;92139.38;2068169;69;20572;-76
2022/09/25 11:58:38;;;;;;;5.65;4.53;;;;;;;17.84;54.83;92143.72;2071677;69;20200;-76
2022/09/25 12:01:13;;;;;;;5.13;4.50;;;;;;;18.06;53.24;92135.72;2071704;69;20223;-76
2022/09/25 12:04:07;;;;;;;6.63;4.63;;;;;;;18.00;54.05;92138.41;2071547;69;20159;-77
2022/09/25 12:06:47;;;;;;;8.50;5.90;;;;;;;17.81;55.14;92130.81;2071472;69;20149;-77
2022/09/25 12:09:32;;;;;;;4.20;3.53;;;;;;;18.20;53.01;92121.09;2071616;69;20144;-76
2022/09/25 12:12:25;;;;;;;4.88;3.90;;;;;;;18.33;53.28;92119.97;2071491;69;20225;-77
2022/09/25 12:15:13;;;;;;;4.20;3.80;;;;;;;18.54;52.62;92119.00;2068158;69;20168;-76